Central Sonoma County Latest

37 Stations

15 Minute Data | America/Los_Angeles
as of 5/6/26 6:37 PM PDT
Station Date Time Temp (°F) RH (%) Dew Pt (°F) Wind Spd (mph) Wind Dir (°) Wind Gust (mph) Latest Rain (In) Daily Rain (In) Daily Max Temp (°F) Daily Min Temp (°F)
Windsor-NW (Ranch 8) 5/6/26 1830 69.6   4.8 62   9 55.9   0.6 4.7   3.1 SSE | 163 9.1   2.6 0.00 0.00 77.2   9.2 54.3   2.3
Windsor-East (Ranch 16) 5/6/26 1830 69.7   5.8 55   8 52.9   1.6 5.6   0.6 S | 183 9.3   0.4 0.00 0.00 75.1   8.4 54.6   2.5
Mark West-North (Ranch 14) 5/6/26 1830 67.6   5.1 56   8 51.6   1.4 4.1   0.5 S | 184 8.2   0.5 0.00 0.00 74.6   8.0 54.3   2.3
Windsor-SE (Silk Rd) 5/6/26 1830 69.8   6.2 56   8 53.7   2.2 3.3   0.9 S | 172 7.2   1.5 0.00 0.00 74.6   7.4 54.7   2.3
Fulton-NW (Ranch 5) 5/6/26 1830 69.3   5.9 57   9 53.2   1.5 4.5   0.3 SSW | 198 9.4   0.4 0.00 0.00 74.0   7.3 54.3   2.2
Bisordi (Fulton) 5/6/26 1830 68.8   5.5 64   8 56.1   2.0 4.2   0.1 SW | 215 8.3   0.3 0.00 0.00 73.6   7.8 54.5   2.1
Windsor-South (Laughlin Rd) 5/4/26 1515 70.3 46 48.5 - - - 0.00 - 71.4 51.0
Fulton-SE (Barnes Rd) 5/6/26 1830 68.6   5.2 61   6 54.7   2.3 5.4   5.4 SE | 144 10.4   10.4 0.00 0.00 73.2   7.3 54.9   2.7
Fulton-SW (Ranch 21) 5/6/26 1830 68.3   5.9 59   7 53.4   2.3 4.9   1.1 SSW | 204 8.8   2.1 0.00 0.00 73.1   7.4 54.0   1.9
NW Santa Rosa (Piner Road) 5/6/26 1830 67.4   5.5 67   8 55.9   2.1 4.8   0.2 SW | 224 8.4   2.2 0.00 0.00 72.8   7.3 54.3   2.2
River Rd South (Denner Ranch) 5/6/26 1830 67.6   5.3 58   6 52.4   2.3 7.2   0.1 SSW | 197 15.3   4.2 - - 74.6   7.4 53.9   2.4
West Santa Rosa (LOV Vineyard) 5/6/26 1830 67.3   5.1 60   6 53.0   2.1 4.6   0.0 SSW | 206 7.9   1.1 0.00 0.00 72.8   6.9 54.4   2.3
Guerneville Rd (Prokopakis) 5/6/26 1830 72.4   7.5 53   10 54.4   2.1 - - - 0.00 0.00 77.8   8.0 54.7   2.0
SunnyView Vineyard (SCWC) 5/6/26 1830 67.9   5.4 59   7 52.9   2.1 3.8   0.4 SW | 228 7.4   0.9 0.00 0.00 73.5   6.9 53.9   2.1
Guerneville Rd West (Balletto) 5/6/26 1830 67.6   4.9 65   7 55.4   2.0 5.3   0.7 SW | 227 9.4   1.0 0.00 0.00 72.4   6.4 54.6   2.2
Sanchietti Ranch 5/6/26 1830 68.7   5.2 70   4 58.5   3.4 3.5   1.6 SSW | 209 6.8   2.6 0.00 0.00 72.9   6.2 55.2   2.0
Occidental Rd (Sebastopol) 5/6/26 1830 68.7   7.4 87   13 64.6   3.2 3.4   0.7 SW | 236 6.6   1.8 0.00 0.00 72.3   6.0 53.8   1.8
Harper's Rest (Windsor-West) 5/6/26 1830 68.8   5.7 55   9 51.9   1.2 2.8   0.1 SSW | 194 8.9   2.2 0.00 0.00 76.2   8.8 53.4   2.7
Lower Westside Rd (Ranch 12) 5/6/26 1830 70.0   6.0 54   10 52.4   1.1 3.2   0.6 S | 191 8.4   1.8 0.00 0.00 77.5   9.1 54.6   3.0
Guerneville (Laughlin Rd) 5/6/26 1830 64.9   3.2 64   5 52.4   1.1 4.5   1.7 SSE | 166 9.5   3.7 0.00 0.00 73.7   7.5 53.9   3.1
Korbel (Winery) 5/6/26 1830 67.6   5.4 60   10 53.4   0.8 2.5   0.6 S | 176 6.7   0.9 0.00 0.00 73.4   7.7 54.7   3.2
Forestville (Shone Farms) 5/6/26 1830 70.3   8.0 54   14 53.0   1.2 3.2   0.4 SSW | 196 9.9   2.0 0.00 0.00 76.2   9.0 52.3   1.2
Forestville-NE (Ranch 30) 5/6/26 1830 68.8   7.2 61   12 54.7   2.0 5.6   0.1 SSW | 212 12.8   0.7 0.00 0.00 75.7   6.4 53.9   2.7
Foggy Bend (Ranch 41) 5/6/26 1830 70.2   7.8 61   12 55.9   2.6 3.6   0.7 W | 259 8.4   0.0 0.00 0.00 75.4   8.4 55.0   2.5
Last Stop 5/6/26 1830 68.0   7.5 59   14 53.3   1.5 3.6   0.8 SW | 224 10.7   3.9 0.00 0.00 74.2   8.6 54.3   2.3
Green Valley Vineyard 5/6/26 1830 66.0   6.2 60   9 51.8   2.0 5.7   2.0 WSW | 255 18.2   7.2 0.00 0.00 72.7   7.2 53.4   2.4
Park Royal 5/6/26 1830 68.4   6.1 60   6 53.9   3.0 - - - 0.00 0.00 73.0   7.2 54.2   2.3
Merino 5/6/26 1830 68.0   5.1 67   3 56.7   3.8 5.0   1.2 S | 184 8.8   0.2 0.00 0.00 72.9   7.0 54.3   2.2
Green Valley (Sanchietti) 5/6/26 1830 69.2   7.6 - - - - - - - 76.4   8.0 54.8   2.3
Keefer Ranch (Green Valley) 5/6/26 1830 65.9   5.1 64   9 53.4   1.5 - - - 0.00 0.00 73.0   7.0 54.4   2.3
Graton-West (Dutton Ranch) 5/6/26 1830 66.6   5.7 76   23 58.9   1.7 2.4   0.0 SSW | 192 5.3   0.2 0.00 0.00 74.6   6.7 54.4   2.2
Graton-South (Mill Station Rd) 5/6/26 1830 66.7   6.6 61   9 53.0   2.5 2.2   0.1 W | 262 5.9   0.2 0.00 0.00 69.8   5.0 53.7   2.1
Occidental (Horseshoe Bend) 5/6/26 1830 62.0   4.1 70   5 52.1   2.2 - - - 0.00 0.00 69.4   5.6 51.4   1.2
Sexton Valley (Jacqueline's Blk) 5/6/26 1830 65.9   5.8 68   5 55.2   3.6 2.3   0.7 SSW | 203 4.8   4.6 0.00 0.00 69.7   3.6 54.2   2.0
Sebastopol Hills (Burnside Rd) 5/6/26 1830 61.0   3.1 79   0 54.4   3.1 6.0   0.9 SW | 220 10.9   1.1 0.00 0.01 66.6   3.1 52.3   1.3
Pleasant Hill 5/6/26 1830 63.3   4.5 67   4 52.2   2.7 3.7   0.6 W | 266 8.5   1.4 0.00 0.01 69.0   3.2 53.2   2.1
Seaview/Fort Ross (Hirsch) 5/6/26 1830 58.4   7.5 78   12 51.8   3.5 4.0   1.2 NNW | 329 9.6   3.9 0.00 0.00 64.9   9.6 49.0   2.3
Max     72.4 87 64.6 7.2 - 18.2 0.00 0.01 77.8 55.2
Avg     67.5 63 54.3 4.2 - 9.0 0.00 - - -
Min     58.4 53 51.6 2.2 - 4.8 0.00 0.00 64.9 49.0